This is the latest recevied weather packets stored in our database for station/object DO7CRZ-11. If no packets are shown the sender has not sent any weather packets the latest 10 day(s).
| Time | Temp. | Humidity | Pressure | Rain* | Wind** | Luminosity | Snow |
|---|---|---|---|---|---|---|---|
| 1777980730 | 22.78° C | 54% | 1008.5 hPa | 0 mm | - | 305 W/m² | - |
| 1777980131 | 23.33° C | 54% | 1008.4 hPa | 0 mm | - | 567 W/m² | - |
| 1777979534 | 22.78° C | 54% | 1008.5 hPa | 0 mm | - | 650 W/m² | - |
| 1777978928 | 22.78° C | 54% | 1008.6 hPa | 0 mm | - | 610 W/m² | - |
| 1777978331 | 22.22° C | 56% | 1008.6 hPa | 0 mm | - | 715 W/m² | - |
| 1777977735 | 22.22° C | 56% | 1008.7 hPa | 0 mm | - | 399 W/m² | - |
| 1777977128 | 22.22° C | 55% | 1008.9 hPa | 0 mm | - | 307 W/m² | - |
| 1777976531 | 22.78° C | 54% | 1008.9 hPa | 0 mm | - | 560 W/m² | - |
| 1777975934 | 22.78° C | 54% | 1009 hPa | 0 mm | - | 695 W/m² | - |
| 1777975327 | 22.22° C | 56% | 1009 hPa | 0 mm | - | 757 W/m² | - |
| 1777974731 | 21.67° C | 58% | 1009.1 hPa | 0 mm | - | 613 W/m² | - |
| 1777974133 | 22.22° C | 56% | 1009.2 hPa | 0 mm | - | 390 W/m² | - |
| 1777973531 | 22.22° C | 58% | 1009.2 hPa | 0 mm | - | 733 W/m² | - |
| 1777972333 | 21.67° C | 59% | 1009.3 hPa | 0 mm | - | 506 W/m² | - |
| 1777971727 | 21.11° C | 60% | 1009.2 hPa | 0 mm | - | 688 W/m² | - |
| 1777971132 | 21.67° C | 60% | 1009.2 hPa | 0 mm | - | 549 W/m² | - |
| 1777970533 | 21.11° C | 62% | 1009.4 hPa | 0 mm | - | 631 W/m² | - |
| 1777969926 | 20.56° C | 62% | 1009.4 hPa | 0 mm | - | 489 W/m² | - |
| 1777969330 | 20.56° C | 63% | 1009.5 hPa | 0 mm | - | 530 W/m² | - |
| 1777968733 | 20.56° C | 63% | 1009.4 hPa | 0 mm | - | 538 W/m² | - |
| 1777968126 | 20° C | 63% | 1009.6 hPa | 0 mm | - | 449 W/m² | - |
| 1777967530 | 20° C | 63% | 1009.7 hPa | 0 mm | - | 321 W/m² | - |
| 1777966933 | 19.44° C | 66% | 1009.7 hPa | 0 mm | - | 464 W/m² | - |
| 1777966326 | 18.89° C | 70% | 1009.8 hPa | 0 mm | - | 433 W/m² | - |
| 1777965729 | 17.78° C | 72% | 1009.8 hPa | 0 mm | - | 371 W/m² | - |
* Rain latest hour (hover to see other rain measurements)
** Current wind speed in m/s (hover to see current wind gust speed)